createdAt,value
2022-10-20T00:01:43.644Z,99056.66
2022-10-20T00:04:10.787Z,99055.97
2022-10-20T00:06:38.235Z,99056.03
2022-10-20T00:09:06.477Z,99054.53
2022-10-20T00:11:34.319Z,99053.91
2022-10-20T00:14:03.280Z,99057.41
2022-10-20T00:16:34.834Z,99052.34
2022-10-20T00:19:02.369Z,99057.78
2022-10-20T00:21:32.102Z,99059.56
2022-10-20T00:24:03.505Z,99057.91
2022-10-20T00:26:32.839Z,99048.50
2022-10-20T00:29:03.606Z,99050.25
2022-10-20T00:31:31.486Z,99047.06
2022-10-20T00:33:58.677Z,99045.56
2022-10-20T00:36:26.133Z,99044.78
2022-10-20T00:39:02.474Z,99040.72
2022-10-20T00:41:30.790Z,99039.00
2022-10-20T00:44:53.212Z,99042.72
2022-10-20T00:47:49.112Z,99048.91
2022-10-20T00:50:23.342Z,99048.19
2022-10-20T00:52:53.542Z,99047.47
2022-10-20T00:55:27.670Z,99043.44
2022-10-20T00:57:58.336Z,99046.28
2022-10-20T01:00:27.763Z,99041.16
2022-10-20T01:03:00.491Z,99046.56
2022-10-20T01:05:28.519Z,99040.69
2022-10-20T01:07:55.864Z,99038.94
2022-10-20T01:10:29.676Z,99039.31
2022-10-20T01:13:39.990Z,99037.84
2022-10-20T01:16:31.497Z,99037.38
2022-10-20T01:19:19.132Z,99037.75
2022-10-20T01:22:37.336Z,99044.00
2022-10-20T01:25:28.898Z,99050.25
2022-10-20T01:28:26.988Z,99044.50
2022-10-20T01:31:02.323Z,99035.81
2022-10-20T01:33:54.484Z,99042.75
2022-10-20T01:36:41.159Z,99038.59
2022-10-20T01:39:18.788Z,99042.13
2022-10-20T01:41:54.648Z,99036.09
2022-10-20T01:44:27.096Z,99035.47
2022-10-20T01:46:57.105Z,99035.69
2022-10-20T01:49:26.372Z,99041.78
2022-10-20T01:51:55.094Z,99041.72
2022-10-20T01:54:26.467Z,99040.16
2022-10-20T01:57:43.897Z,99043.81
2022-10-20T02:00:17.089Z,99046.34
2022-10-20T02:03:13.242Z,99042.19
2022-10-20T02:06:23.527Z,99043.19
2022-10-20T02:09:03.748Z,99036.31
2022-10-20T02:12:07.547Z,99041.56
2022-10-20T02:14:37.506Z,99039.03
2022-10-20T02:17:14.417Z,99029.97
2022-10-20T02:19:45.525Z,99033.63
2022-10-20T02:22:16.392Z,99032.97
2022-10-20T02:24:45.768Z,99036.56
2022-10-20T02:27:24.791Z,99035.72
2022-10-20T02:30:19.640Z,99032.34
2022-10-20T02:32:52.660Z,99040.91
2022-10-20T02:35:31.008Z,99042.72
2022-10-20T02:37:59.549Z,99041.88
2022-10-20T02:40:27.959Z,99048.84
2022-10-20T02:42:55.108Z,99042.81
2022-10-20T02:45:22.540Z,99046.31
2022-10-20T02:47:50.000Z,99044.63
2022-10-20T02:50:17.512Z,99048.13
2022-10-20T02:52:44.676Z,99049.09
2022-10-20T02:55:12.128Z,99052.47
2022-10-20T02:57:39.568Z,99064.66
2022-10-20T03:00:08.199Z,99049.16
2022-10-20T03:02:35.370Z,99067.28
2022-10-20T03:05:03.211Z,99064.69
2022-10-20T03:07:30.538Z,99062.19
2022-10-20T03:09:58.032Z,99068.34
2022-10-20T03:12:28.819Z,99065.81
2022-10-20T03:14:58.846Z,99068.34
2022-10-20T03:17:26.043Z,99069.31
2022-10-20T03:19:53.399Z,99070.22
2022-10-20T03:22:20.608Z,99069.31
2022-10-20T03:24:47.989Z,99072.00
2022-10-20T03:27:15.152Z,99075.50
2022-10-20T03:29:42.642Z,99071.97
2022-10-20T03:32:09.819Z,99079.84
2022-10-20T03:34:37.181Z,99076.38
2022-10-20T03:37:04.360Z,99083.38
2022-10-20T03:39:31.686Z,99073.13
2022-10-20T03:41:58.888Z,99080.91
2022-10-20T03:44:26.229Z,99079.31
2022-10-20T03:46:53.371Z,99079.41
2022-10-20T03:49:21.804Z,99079.63
2022-10-20T03:51:48.931Z,99076.25
2022-10-20T03:54:16.356Z,99077.44
2022-10-20T03:56:43.529Z,99069.75
2022-10-20T03:59:12.015Z,99071.56
2022-10-20T04:01:39.293Z,99064.78
2022-10-20T04:04:06.715Z,99066.47
2022-10-20T04:06:33.971Z,99069.06
2022-10-20T04:09:01.461Z,99060.44
2022-10-20T04:11:28.849Z,99063.06
2022-10-20T04:13:56.267Z,99058.69
2022-10-20T04:16:24.293Z,99052.72
2022-10-20T04:18:56.002Z,99054.78
2022-10-20T04:21:23.429Z,99053.03
2022-10-20T04:23:50.951Z,99053.16
2022-10-20T04:26:18.082Z,99050.72
2022-10-20T04:28:45.542Z,99053.25
2022-10-20T04:31:12.838Z,99049.91
2022-10-20T04:33:40.190Z,99048.16
2022-10-20T04:36:12.621Z,99054.91
2022-10-20T04:38:40.050Z,99053.22
2022-10-20T04:41:07.238Z,99057.59
2022-10-20T04:43:35.216Z,99065.38
2022-10-20T04:46:08.687Z,99064.56
2022-10-20T04:48:38.261Z,99072.19
2022-10-20T04:51:09.881Z,99065.31
2022-10-20T04:53:37.424Z,99061.03
2022-10-20T04:56:08.810Z,99056.72
2022-10-20T04:58:36.313Z,99061.03
2022-10-20T05:01:10.520Z,99065.44
2022-10-20T05:03:37.930Z,99059.44
2022-10-20T05:06:20.147Z,99068.16
2022-10-20T05:08:51.794Z,99060.38
2022-10-20T05:11:22.230Z,99059.59
2022-10-20T05:13:49.923Z,99062.31
2022-10-20T05:16:18.095Z,99060.63
2022-10-20T05:18:46.705Z,99054.72
2022-10-20T05:21:17.443Z,99061.75
2022-10-20T05:23:45.301Z,99060.03
2022-10-20T05:26:17.483Z,99060.97
2022-10-20T05:28:48.378Z,99065.25
2022-10-20T05:31:18.297Z,99066.16
2022-10-20T05:33:51.974Z,99062.78
2022-10-20T05:36:23.609Z,99060.41
2022-10-20T05:38:53.850Z,99062.13
2022-10-20T05:41:28.916Z,99062.28
2022-10-20T05:44:04.540Z,99066.28
2022-10-20T05:46:38.441Z,99068.31
2022-10-20T05:49:05.818Z,99065.88
2022-10-20T05:51:36.589Z,99072.81
2022-10-20T05:54:04.660Z,99072.63
2022-10-20T05:56:32.217Z,99078.38
2022-10-20T05:58:59.837Z,99085.88
2022-10-20T06:01:48.339Z,99081.50
2022-10-20T06:04:25.476Z,99091.53
2022-10-20T06:06:53.467Z,99088.31
2022-10-20T06:09:22.740Z,99089.63
2022-10-20T06:11:51.293Z,99085.88
2022-10-20T06:14:19.447Z,99088.41
2022-10-20T06:16:49.749Z,99098.88
2022-10-20T06:19:17.451Z,99096.16
2022-10-20T06:21:44.728Z,99093.31
2022-10-20T06:24:12.704Z,99098.31
2022-10-20T06:26:40.545Z,99102.59
2022-10-20T06:29:12.985Z,99096.19
2022-10-20T06:31:51.962Z,99099.44
2022-10-20T06:34:23.212Z,99102.00
2022-10-20T06:36:52.287Z,99104.13
2022-10-20T06:39:24.589Z,99105.38
2022-10-20T06:41:57.710Z,99099.66
2022-10-20T06:44:25.224Z,99091.44
2022-10-20T06:46:52.728Z,99097.88
2022-10-20T06:49:21.011Z,99094.84
2022-10-20T06:51:48.376Z,99100.44
2022-10-20T06:54:16.733Z,99103.72
2022-10-20T06:56:43.920Z,99108.66
2022-10-20T06:59:11.358Z,99101.41
2022-10-20T07:01:40.017Z,99101.97
2022-10-20T07:04:13.710Z,99103.00
2022-10-20T07:06:44.023Z,99106.88
2022-10-20T07:09:17.623Z,99109.25
2022-10-20T07:11:45.222Z,99107.41
2022-10-20T07:14:14.112Z,99103.47
2022-10-20T07:16:41.827Z,99115.56
2022-10-20T07:19:09.996Z,99108.19
2022-10-20T07:21:39.346Z,99113.78
2022-10-20T07:24:09.930Z,99110.09
2022-10-20T07:26:40.570Z,99112.50
2022-10-20T07:29:08.818Z,99104.63
2022-10-20T07:31:45.275Z,99113.53
2022-10-20T07:34:30.940Z,99110.97
2022-10-20T07:36:58.884Z,99108.56
2022-10-20T07:39:27.454Z,99103.16
2022-10-20T07:41:54.970Z,99106.94
2022-10-20T07:44:22.547Z,99105.91
2022-10-20T07:46:49.791Z,99093.06
2022-10-20T07:52:13.485Z,99090.09
2022-10-20T07:54:40.901Z,99089.09
2022-10-20T07:57:08.051Z,99090.84
2022-10-20T07:59:35.726Z,99101.25
2022-10-20T08:02:03.544Z,99099.88
2022-10-20T08:04:31.784Z,99109.50
2022-10-20T08:07:00.407Z,99101.38
2022-10-20T08:09:27.829Z,99106.38
2022-10-20T08:11:55.936Z,99107.56
2022-10-20T08:14:27.201Z,99109.22
2022-10-20T08:17:00.305Z,99106.34
2022-10-20T08:19:34.766Z,99101.59
2022-10-20T08:22:02.171Z,99108.94
2022-10-20T08:24:29.574Z,99112.50
2022-10-20T08:26:56.862Z,99117.84
2022-10-20T08:29:24.320Z,99119.47
2022-10-20T08:31:51.503Z,99108.69
2022-10-20T08:34:18.862Z,99107.31
2022-10-20T08:36:46.078Z,99107.38
2022-10-20T08:39:13.557Z,99103.25
2022-10-20T08:42:06.901Z,99102.41
2022-10-20T08:44:36.330Z,99096.81
2022-10-20T08:47:14.343Z,99097.34
2022-10-20T08:49:44.757Z,99110.19
2022-10-20T08:52:17.142Z,99108.41
2022-10-20T08:54:44.740Z,99104.91
2022-10-20T08:57:26.461Z,99098.03
2022-10-20T08:59:59.164Z,99100.28
2022-10-20T09:02:30.006Z,99090.84
2022-10-20T09:05:00.782Z,99095.88
2022-10-20T09:07:34.943Z,99098.56
2022-10-20T09:10:34.079Z,99091.97
2022-10-20T09:13:03.328Z,99096.50
2022-10-20T09:15:31.681Z,99095.53
2022-10-20T09:18:13.439Z,99089.03
2022-10-20T09:20:56.374Z,99088.94
2022-10-20T09:23:41.879Z,99092.53
2022-10-20T09:26:37.651Z,99096.63
2022-10-20T09:29:17.584Z,99093.34
2022-10-20T09:31:46.298Z,99090.63
2022-10-20T09:34:27.506Z,99091.72
2022-10-20T09:36:59.796Z,99092.59
2022-10-20T09:39:32.261Z,99087.88
2022-10-20T09:42:12.511Z,99078.88
2022-10-20T09:44:58.754Z,99085.50
2022-10-20T09:47:28.425Z,99073.84
2022-10-20T09:50:17.968Z,99075.94
2022-10-20T09:52:49.354Z,99073.72
2022-10-20T09:55:36.458Z,99067.50
2022-10-20T09:58:06.181Z,99065.81
2022-10-20T10:00:42.527Z,99072.63
2022-10-20T10:03:22.902Z,99071.75
2022-10-20T10:05:59.460Z,99075.84
2022-10-20T10:08:44.689Z,99074.84
2022-10-20T10:11:19.614Z,99073.59
2022-10-20T10:13:51.054Z,99070.19
2022-10-20T10:16:24.256Z,99057.66
2022-10-20T10:19:04.892Z,99052.22
2022-10-20T10:21:47.443Z,99048.56
2022-10-20T10:24:47.148Z,99045.22
2022-10-20T10:27:25.119Z,99047.34
2022-10-20T10:29:54.714Z,99047.94
2022-10-20T10:32:30.331Z,99041.13
2022-10-20T10:35:39.919Z,99040.09
2022-10-20T10:38:13.666Z,99039.88
2022-10-20T10:41:48.708Z,99039.34
2022-10-20T10:44:48.714Z,99027.69
2022-10-20T10:48:19.087Z,99031.31
2022-10-20T10:51:02.003Z,99024.91
2022-10-20T10:54:35.078Z,99022.13
2022-10-20T10:57:41.071Z,99013.19
2022-10-20T11:00:22.136Z,99014.28
2022-10-20T11:03:24.408Z,99012.38
2022-10-20T11:05:57.754Z,99005.22
2022-10-20T11:08:38.497Z,99001.00
2022-10-20T11:11:44.365Z,98997.81
2022-10-20T11:14:43.019Z,98990.22
2022-10-20T11:17:31.458Z,98988.31
2022-10-20T11:20:24.582Z,98980.84
2022-10-20T11:24:05.909Z,98979.00
2022-10-20T11:26:44.637Z,98963.50
2022-10-20T11:29:20.129Z,98966.38
2022-10-20T11:32:20.279Z,98951.25
2022-10-20T11:35:22.154Z,98953.41
2022-10-20T11:38:32.300Z,98946.06
2022-10-20T11:41:17.189Z,98939.59
2022-10-20T11:44:02.434Z,98933.91
2022-10-20T11:46:39.777Z,98932.16
2022-10-20T11:49:07.788Z,98932.09
2022-10-20T11:52:05.095Z,98928.44
2022-10-20T11:55:10.821Z,98926.34
2022-10-20T11:58:08.104Z,98911.78
2022-10-20T12:00:55.149Z,98912.06
2022-10-20T12:04:09.349Z,98904.75
2022-10-20T12:07:09.903Z,98905.63
2022-10-20T12:10:04.597Z,98910.81
2022-10-20T12:12:50.596Z,98910.78
2022-10-20T12:15:30.540Z,98899.91
2022-10-20T12:18:07.282Z,98899.00
2022-10-20T12:20:37.684Z,98890.81
2022-10-20T12:23:05.274Z,98893.72
2022-10-20T12:25:40.508Z,98896.44
2022-10-20T12:28:23.039Z,98886.69
2022-10-20T12:30:56.030Z,98883.28
2022-10-20T12:33:55.297Z,98871.38
2022-10-20T12:36:29.646Z,98872.69
2022-10-20T12:39:18.264Z,98865.13
2022-10-20T12:41:59.139Z,98847.72
2022-10-20T12:44:38.402Z,98855.31
2022-10-20T12:47:09.165Z,98858.03
2022-10-20T12:49:53.275Z,98849.69
2022-10-20T12:52:29.009Z,98842.31
2022-10-20T12:55:25.812Z,98836.09
2022-10-20T12:58:12.699Z,98841.78
2022-10-20T13:00:49.608Z,98847.31
2022-10-20T13:03:37.293Z,98842.50
2022-10-20T13:06:27.497Z,98844.97
2022-10-20T13:09:03.881Z,98839.63
2022-10-20T13:11:52.784Z,98835.69
2022-10-20T13:14:23.372Z,98833.47
2022-10-20T13:17:09.254Z,98836.91
2022-10-20T13:20:01.454Z,98833.75
2022-10-20T13:22:46.738Z,98832.00
2022-10-20T13:25:48.901Z,98832.97
2022-10-20T13:28:20.967Z,98833.38
2022-10-20T13:31:16.750Z,98822.13
2022-10-20T13:34:15.485Z,98824.34
2022-10-20T13:37:28.077Z,98817.63
2022-10-20T13:40:39.391Z,98812.47
2022-10-20T13:43:18.561Z,98809.19
2022-10-20T13:46:07.196Z,98804.75
2022-10-20T13:49:04.708Z,98809.56
2022-10-20T13:51:42.556Z,98807.28
2022-10-20T13:54:25.060Z,98805.66
2022-10-20T13:56:54.768Z,98809.06
2022-10-20T13:59:29.090Z,98798.44
2022-10-20T14:02:26.995Z,98809.81
2022-10-20T14:05:14.385Z,98799.44
2022-10-20T14:07:44.578Z,98790.63
2022-10-20T14:11:06.816Z,98793.84
2022-10-20T14:13:36.365Z,98788.13
2022-10-20T14:16:18.244Z,98788.38
2022-10-20T14:19:10.593Z,98790.72
2022-10-20T14:21:43.295Z,98791.09
2022-10-20T14:24:39.632Z,98788.13
2022-10-20T14:27:21.510Z,98774.09
2022-10-20T14:29:50.401Z,98777.69
2022-10-20T14:32:28.605Z,98774.66
2022-10-20T14:35:29.066Z,98769.94
2022-10-20T14:38:08.195Z,98773.88
2022-10-20T14:40:38.177Z,98780.13
2022-10-20T14:43:17.056Z,98769.53
2022-10-20T14:46:03.322Z,98769.75
2022-10-20T14:48:46.639Z,98768.59
2022-10-20T14:51:35.247Z,98770.78
2022-10-20T14:54:39.521Z,98760.97
2022-10-20T14:57:09.632Z,98763.94
2022-10-20T15:00:03.429Z,98761.09
2022-10-20T15:02:43.141Z,98762.16
2022-10-20T15:05:26.843Z,98760.44
2022-10-20T15:07:54.746Z,98754.16
2022-10-20T15:10:27.104Z,98755.44
2022-10-20T15:12:55.824Z,98752.22
2022-10-20T15:15:35.788Z,98744.78
2022-10-20T15:18:19.161Z,98750.31
2022-10-20T15:20:49.027Z,98742.41
2022-10-20T15:23:17.696Z,98743.94
2022-10-20T15:26:10.513Z,98747.72
2022-10-20T15:28:46.259Z,98741.81
2022-10-20T15:31:13.556Z,98742.03
2022-10-20T15:33:41.650Z,98746.00
2022-10-20T15:36:26.542Z,98739.44
2022-10-20T15:38:54.061Z,98743.16
2022-10-20T15:41:31.688Z,98741.41
2022-10-20T15:44:17.475Z,98740.00
2022-10-20T15:46:45.501Z,98737.63
2022-10-20T15:49:13.639Z,98742.25
2022-10-20T15:51:45.250Z,98743.63
2022-10-20T15:54:19.689Z,98736.84
2022-10-20T15:56:47.682Z,98740.09
2022-10-20T15:59:15.024Z,98743.78
2022-10-20T16:01:42.444Z,98739.34
2022-10-20T16:04:20.072Z,98737.66
2022-10-20T16:06:47.595Z,98741.59
2022-10-20T16:09:16.129Z,98737.84
2022-10-20T16:11:44.926Z,98735.91
2022-10-20T16:14:15.467Z,98732.88
2022-10-20T16:16:45.025Z,98733.50
2022-10-20T16:19:12.336Z,98730.81
2022-10-20T16:21:39.719Z,98730.34
2022-10-20T16:24:07.082Z,98729.78
2022-10-20T16:26:34.747Z,98728.72
2022-10-20T16:29:02.040Z,98730.66
2022-10-20T16:31:29.571Z,98737.91
2022-10-20T16:34:00.372Z,98743.53
2022-10-20T16:36:27.832Z,98743.03
2022-10-20T16:38:57.254Z,98737.56
2022-10-20T16:41:25.034Z,98741.63
2022-10-20T16:43:54.350Z,98748.47
2022-10-20T16:46:23.106Z,98752.84
2022-10-20T16:48:50.396Z,98753.91
2022-10-20T16:51:18.493Z,98752.69
2022-10-20T16:53:45.707Z,98753.09
2022-10-20T16:56:16.645Z,98751.31
2022-10-20T16:58:47.283Z,98748.69
2022-10-20T17:01:17.972Z,98747.25
2022-10-20T17:03:51.006Z,98742.09
2022-10-20T17:06:23.273Z,98744.16
2022-10-20T17:08:50.928Z,98741.88
2022-10-20T17:11:26.310Z,98743.94
2022-10-20T17:13:54.463Z,98740.69
2022-10-20T17:16:32.121Z,98747.47
2022-10-20T17:19:02.355Z,98743.34
2022-10-20T17:21:31.855Z,98752.34
2022-10-20T17:23:59.693Z,98751.69
2022-10-20T17:26:33.289Z,98749.50
2022-10-20T17:29:01.921Z,98748.00
2022-10-20T17:31:30.209Z,98753.81
2022-10-20T17:33:59.440Z,98750.72
2022-10-20T17:36:29.007Z,98748.13
2022-10-20T17:39:00.510Z,98748.06
2022-10-20T17:41:28.950Z,98744.41
2022-10-20T17:44:00.742Z,98742.06
2022-10-20T17:46:28.465Z,98742.25
2022-10-20T17:48:56.226Z,98739.28
2022-10-20T17:51:29.019Z,98727.03
2022-10-20T17:53:59.462Z,98717.59
2022-10-20T17:56:34.455Z,98720.34
2022-10-20T17:59:03.139Z,98720.91
2022-10-20T18:01:35.597Z,98720.09
2022-10-20T18:04:13.409Z,98723.09
2022-10-20T18:06:43.116Z,98712.50
2022-10-20T18:09:14.335Z,98714.53
2022-10-20T18:11:49.219Z,98721.09
2022-10-20T18:14:17.191Z,98722.97
2022-10-20T18:16:46.069Z,98723.81
2022-10-20T18:19:18.300Z,98723.22
2022-10-20T18:21:46.678Z,98717.59
2022-10-20T18:24:17.007Z,98711.72
2022-10-20T18:26:45.418Z,98717.84
2022-10-20T18:29:15.642Z,98715.22
2022-10-20T18:31:46.230Z,98709.78
2022-10-20T18:34:18.064Z,98715.91
2022-10-20T18:36:46.321Z,98711.69
2022-10-20T18:39:15.425Z,98711.44
2022-10-20T18:41:44.481Z,98706.81
2022-10-20T18:44:15.432Z,98716.34
2022-10-20T18:46:43.587Z,98712.34
2022-10-20T18:49:15.351Z,98705.97
2022-10-20T18:51:45.607Z,98709.38
2022-10-20T18:54:13.490Z,98709.59
2022-10-20T18:56:41.192Z,98706.25
2022-10-20T18:59:13.856Z,98711.66
2022-10-20T19:01:42.390Z,98710.81
2022-10-20T19:04:12.151Z,98711.31
2022-10-20T19:06:48.092Z,98708.03
2022-10-20T19:09:21.254Z,98709.09
2022-10-20T19:14:22.611Z,98701.25
2022-10-20T19:16:50.271Z,98705.28
2022-10-20T19:19:17.571Z,98699.47
2022-10-20T19:21:45.418Z,98692.13
2022-10-20T19:24:23.141Z,98697.78
2022-10-20T19:27:24.631Z,98707.88
2022-10-20T19:29:42.112Z,98699.13
2022-10-20T19:32:09.753Z,98708.72
2022-10-20T19:34:40.134Z,98700.34
2022-10-20T19:37:08.542Z,98702.69
2022-10-20T19:39:41.558Z,98704.00
2022-10-20T19:42:10.539Z,98692.34
2022-10-20T19:44:38.573Z,98684.31
2022-10-20T19:47:08.167Z,98681.81
2022-10-20T19:49:36.196Z,98679.84
2022-10-20T19:52:05.443Z,98684.75
2022-10-20T19:54:32.811Z,98687.09
2022-10-20T19:57:00.480Z,98680.44
2022-10-20T19:59:27.848Z,98678.31
2022-10-20T20:01:55.431Z,98664.75
2022-10-20T20:04:22.694Z,98664.97
2022-10-20T20:06:50.768Z,98671.16
2022-10-20T20:09:18.662Z,98655.28
2022-10-20T20:11:46.126Z,98666.28
2022-10-20T20:14:19.160Z,98663.81
2022-10-20T20:16:47.857Z,98670.22
2022-10-20T20:19:17.954Z,98663.13
2022-10-20T20:21:46.265Z,98674.09
2022-10-20T20:24:14.543Z,98678.25
2022-10-20T20:26:44.565Z,98668.41
2022-10-20T20:29:12.482Z,98667.56
2022-10-20T20:31:40.055Z,98664.81
2022-10-20T20:34:07.212Z,98668.41
2022-10-20T20:36:34.746Z,98666.69
2022-10-20T20:39:02.348Z,98666.50
2022-10-20T20:41:31.281Z,98663.91
2022-10-20T20:43:58.798Z,98658.91
2022-10-20T20:46:30.938Z,98671.28
2022-10-20T20:48:58.443Z,98657.16
2022-10-20T20:51:27.073Z,98650.06
2022-10-20T20:53:55.800Z,98661.22
2022-10-20T20:56:25.999Z,98656.53
2022-10-20T20:58:55.508Z,98654.84
2022-10-20T21:01:31.313Z,98654.09
2022-10-20T21:04:03.221Z,98650.66
2022-10-20T21:06:37.898Z,98660.19
2022-10-20T21:09:12.342Z,98649.63
2022-10-20T21:11:39.773Z,98646.09
2022-10-20T21:14:06.974Z,98647.03
2022-10-20T21:16:37.140Z,98643.72
2022-10-20T21:19:09.542Z,98638.25
2022-10-20T21:21:43.592Z,98636.06
2022-10-20T21:24:12.699Z,98636.06
2022-10-20T21:26:40.622Z,98629.88
2022-10-20T21:29:08.042Z,98642.13
2022-10-20T21:31:36.431Z,98640.16
2022-10-20T21:34:05.696Z,98630.59
2022-10-20T21:36:36.049Z,98628.94
2022-10-20T21:39:07.117Z,98626.88
2022-10-20T21:41:36.600Z,98619.38
2022-10-20T21:44:06.846Z,98620.28
2022-10-20T21:46:47.402Z,98623.28
2022-10-20T21:49:19.862Z,98624.22
2022-10-20T21:51:52.442Z,98620.56
2022-10-20T21:54:29.073Z,98626.19
2022-10-20T21:56:57.262Z,98631.47
2022-10-20T21:59:30.871Z,98631.16
2022-10-20T22:02:01.410Z,98626.59
2022-10-20T22:04:30.368Z,98629.28
2022-10-20T22:06:59.563Z,98624.94
2022-10-20T22:09:27.072Z,98629.34
2022-10-20T22:11:56.833Z,98631.47
2022-10-20T22:14:24.443Z,98623.38
2022-10-20T22:16:52.201Z,98613.88
2022-10-20T22:19:23.246Z,98617.41
2022-10-20T22:21:52.556Z,98616.72
2022-10-20T22:24:21.608Z,98627.53
2022-10-20T22:26:51.746Z,98611.03
2022-10-20T22:29:21.394Z,98613.06
2022-10-20T22:31:49.912Z,98614.88
2022-10-20T22:34:17.108Z,98611.53
2022-10-20T22:36:44.591Z,98614.03
2022-10-20T22:41:45.734Z,98609.38
2022-10-20T22:44:12.935Z,98614.38
2022-10-20T22:46:40.313Z,98610.50
2022-10-20T22:49:07.512Z,98616.38
2022-10-20T22:51:34.925Z,98616.38
2022-10-20T22:54:02.090Z,98613.78
2022-10-20T22:56:29.429Z,98607.56
2022-10-20T22:58:56.797Z,98608.53
2022-10-20T23:01:24.441Z,98611.91
2022-10-20T23:03:52.200Z,98604.91
2022-10-20T23:06:25.847Z,98592.78
2022-10-20T23:08:56.334Z,98595.44
2022-10-20T23:11:24.120Z,98597.97
2022-10-20T23:13:51.544Z,98598.28
2022-10-20T23:16:19.643Z,98591.56
2022-10-20T23:18:47.927Z,98588.47
2022-10-20T23:21:16.057Z,98580.72
2022-10-20T23:23:45.235Z,98583.28
2022-10-20T23:26:13.140Z,98579.19
2022-10-20T23:28:40.326Z,98575.31
2022-10-20T23:31:11.142Z,98569.78
2022-10-20T23:33:40.034Z,98567.22
2022-10-20T23:36:08.006Z,98568.94
2022-10-20T23:38:35.177Z,98561.06
2022-10-20T23:41:03.255Z,98549.53
2022-10-20T23:43:30.444Z,98540.66
2022-10-20T23:45:58.562Z,98549.69
2022-10-20T23:48:26.224Z,98546.31
2022-10-20T23:50:53.964Z,98541.25
2022-10-20T23:53:21.226Z,98549.81
2022-10-20T23:55:48.581Z,98550.38
2022-10-20T23:58:16.024Z,98550.81
